sensor_id;sensor_type;location;lat;lon;timestamp;P1;durP1;ratioP1;P2;durP2;ratioP2
50056;SDS011;36875;49.468;11.200;2022-12-18T00:01:27;3.80;;;2.80;;
50056;SDS011;36875;49.468;11.200;2022-12-18T00:03:56;3.65;;;2.65;;
50056;SDS011;36875;49.468;11.200;2022-12-18T00:06:22;3.78;;;2.83;;
50056;SDS011;36875;49.468;11.200;2022-12-18T00:08:50;2.92;;;2.58;;
50056;SDS011;36875;49.468;11.200;2022-12-18T00:11:16;3.40;;;2.63;;
50056;SDS011;36875;49.468;11.200;2022-12-18T00:13:43;4.30;;;2.85;;
50056;SDS011;36875;49.468;11.200;2022-12-18T00:16:10;2.80;;;2.50;;
50056;SDS011;36875;49.468;11.200;2022-12-18T00:18:37;3.70;;;2.60;;
50056;SDS011;36875;49.468;11.200;2022-12-18T00:21:03;3.58;;;2.60;;
50056;SDS011;36875;49.468;11.200;2022-12-18T00:23:32;3.55;;;2.50;;
50056;SDS011;36875;49.468;11.200;2022-12-18T00:26:00;3.50;;;2.60;;
50056;SDS011;36875;49.468;11.200;2022-12-18T00:28:27;3.45;;;2.53;;
50056;SDS011;36875;49.468;11.200;2022-12-18T00:30:58;4.00;;;2.75;;
50056;SDS011;36875;49.468;11.200;2022-12-18T00:33:25;2.83;;;2.13;;
50056;SDS011;36875;49.468;11.200;2022-12-18T00:35:50;3.60;;;2.55;;
50056;SDS011;36875;49.468;11.200;2022-12-18T00:38:16;3.47;;;2.55;;
50056;SDS011;36875;49.468;11.200;2022-12-18T00:40:41;4.07;;;3.00;;
50056;SDS011;36875;49.468;11.200;2022-12-18T00:43:08;3.20;;;2.33;;
50056;SDS011;36875;49.468;11.200;2022-12-18T00:45:33;4.07;;;2.67;;
50056;SDS011;36875;49.468;11.200;2022-12-18T00:47:59;2.72;;;2.25;;
50056;SDS011;36875;49.468;11.200;2022-12-18T00:50:24;3.33;;;2.20;;
50056;SDS011;36875;49.468;11.200;2022-12-18T00:52:50;2.72;;;2.13;;
50056;SDS011;36875;49.468;11.200;2022-12-18T00:55:16;2.97;;;2.38;;
50056;SDS011;36875;49.468;11.200;2022-12-18T00:57:42;3.53;;;2.13;;
50056;SDS011;36875;49.468;11.200;2022-12-18T01:00:11;3.35;;;2.25;;
50056;SDS011;36875;49.468;11.200;2022-12-18T01:02:38;2.92;;;2.22;;
50056;SDS011;36875;49.468;11.200;2022-12-18T01:05:03;3.08;;;2.30;;
50056;SDS011;36875;49.468;11.200;2022-12-18T01:07:29;2.50;;;2.03;;
50056;SDS011;36875;49.468;11.200;2022-12-18T01:09:55;2.88;;;2.08;;
50056;SDS011;36875;49.468;11.200;2022-12-18T01:12:20;3.63;;;2.53;;
50056;SDS011;36875;49.468;11.200;2022-12-18T01:14:46;3.35;;;2.22;;
50056;SDS011;36875;49.468;11.200;2022-12-18T01:17:13;3.35;;;2.22;;
50056;SDS011;36875;49.468;11.200;2022-12-18T01:19:39;3.28;;;2.30;;
50056;SDS011;36875;49.468;11.200;2022-12-18T01:22:04;3.17;;;2.17;;
50056;SDS011;36875;49.468;11.200;2022-12-18T01:24:30;2.92;;;2.30;;
50056;SDS011;36875;49.468;11.200;2022-12-18T01:26:55;3.17;;;2.20;;
50056;SDS011;36875;49.468;11.200;2022-12-18T01:29:22;2.58;;;2.10;;
50056;SDS011;36875;49.468;11.200;2022-12-18T01:31:47;2.97;;;2.20;;
50056;SDS011;36875;49.468;11.200;2022-12-18T01:34:14;2.58;;;2.20;;
50056;SDS011;36875;49.468;11.200;2022-12-18T01:36:40;2.78;;;1.90;;
50056;SDS011;36875;49.468;11.200;2022-12-18T01:39:06;2.90;;;2.30;;
50056;SDS011;36875;49.468;11.200;2022-12-18T01:41:35;3.92;;;2.28;;
50056;SDS011;36875;49.468;11.200;2022-12-18T01:47:30;2.40;;;2.00;;
50056;SDS011;36875;49.468;11.200;2022-12-18T01:50:03;2.75;;;2.00;;
50056;SDS011;36875;49.468;11.200;2022-12-18T01:52:31;2.60;;;1.85;;
50056;SDS011;36875;49.468;11.200;2022-12-18T01:54:58;2.75;;;2.03;;
50056;SDS011;36875;49.468;11.200;2022-12-18T01:57:26;2.40;;;1.80;;
50056;SDS011;36875;49.468;11.200;2022-12-18T01:59:53;2.70;;;2.00;;
50056;SDS011;36875;49.468;11.200;2022-12-18T02:02:24;3.17;;;2.00;;
50056;SDS011;36875;49.468;11.200;2022-12-18T02:04:51;2.80;;;2.10;;
50056;SDS011;36875;49.468;11.200;2022-12-18T02:07:20;3.15;;;2.10;;
50056;SDS011;36875;49.468;11.200;2022-12-18T02:09:52;2.97;;;1.90;;
50056;SDS011;36875;49.468;11.200;2022-12-18T02:12:24;3.10;;;2.08;;
50056;SDS011;36875;49.468;11.200;2022-12-18T02:14:54;2.67;;;1.70;;
50056;SDS011;36875;49.468;11.200;2022-12-18T02:17:25;2.47;;;1.73;;
50056;SDS011;36875;49.468;11.200;2022-12-18T02:20:02;2.67;;;1.90;;
50056;SDS011;36875;49.468;11.200;2022-12-18T02:22:45;2.55;;;1.83;;
50056;SDS011;36875;49.468;11.200;2022-12-18T02:25:24;2.72;;;1.70;;
50056;SDS011;36875;49.468;11.200;2022-12-18T02:28:05;2.53;;;1.80;;
50056;SDS011;36875;49.468;11.200;2022-12-18T02:30:34;1.88;;;1.55;;
50056;SDS011;36875;49.468;11.200;2022-12-18T02:33:04;2.53;;;1.98;;
50056;SDS011;36875;49.468;11.200;2022-12-18T02:35:31;2.38;;;1.80;;
50056;SDS011;36875;49.468;11.200;2022-12-18T02:37:59;2.72;;;1.67;;
50056;SDS011;36875;49.468;11.200;2022-12-18T02:40:26;2.63;;;1.90;;
50056;SDS011;36875;49.468;11.200;2022-12-18T02:42:53;3.33;;;2.08;;
50056;SDS011;36875;49.468;11.200;2022-12-18T02:45:20;2.15;;;1.70;;
50056;SDS011;36875;49.468;11.200;2022-12-18T02:47:47;2.28;;;1.70;;
50056;SDS011;36875;49.468;11.200;2022-12-18T02:50:16;2.22;;;1.75;;
50056;SDS011;36875;49.468;11.200;2022-12-18T02:52:48;2.42;;;1.90;;
50056;SDS011;36875;49.468;11.200;2022-12-18T02:55:28;2.72;;;1.70;;
50056;SDS011;36875;49.468;11.200;2022-12-18T02:58:08;2.03;;;1.40;;
50056;SDS011;36875;49.468;11.200;2022-12-18T03:00:43;2.83;;;1.88;;
50056;SDS011;36875;49.468;11.200;2022-12-18T03:03:14;2.60;;;1.80;;
50056;SDS011;36875;49.468;11.200;2022-12-18T03:05:44;2.10;;;1.67;;
50056;SDS011;36875;49.468;11.200;2022-12-18T03:08:15;2.45;;;1.80;;
50056;SDS011;36875;49.468;11.200;2022-12-18T03:10:48;2.28;;;1.70;;
50056;SDS011;36875;49.468;11.200;2022-12-18T03:13:16;2.47;;;1.70;;
50056;SDS011;36875;49.468;11.200;2022-12-18T03:15:50;2.42;;;1.65;;
50056;SDS011;36875;49.468;11.200;2022-12-18T03:18:22;3.08;;;1.70;;
50056;SDS011;36875;49.468;11.200;2022-12-18T03:20:51;2.58;;;1.80;;
50056;SDS011;36875;49.468;11.200;2022-12-18T03:23:21;2.22;;;1.52;;
50056;SDS011;36875;49.468;11.200;2022-12-18T03:25:51;2.00;;;1.50;;
50056;SDS011;36875;49.468;11.200;2022-12-18T03:28:22;2.53;;;1.77;;
50056;SDS011;36875;49.468;11.200;2022-12-18T03:30:50;2.20;;;1.50;;
50056;SDS011;36875;49.468;11.200;2022-12-18T03:33:21;2.47;;;1.70;;
50056;SDS011;36875;49.468;11.200;2022-12-18T03:35:51;2.75;;;1.67;;
50056;SDS011;36875;49.468;11.200;2022-12-18T03:38:17;2.53;;;1.75;;
50056;SDS011;36875;49.468;11.200;2022-12-18T03:40:45;2.17;;;1.60;;
50056;SDS011;36875;49.468;11.200;2022-12-18T03:43:19;2.63;;;1.50;;
50056;SDS011;36875;49.468;11.200;2022-12-18T03:45:52;2.35;;;1.60;;
50056;SDS011;36875;49.468;11.200;2022-12-18T03:48:26;2.28;;;1.80;;
50056;SDS011;36875;49.468;11.200;2022-12-18T03:50:56;2.27;;;1.53;;
50056;SDS011;36875;49.468;11.200;2022-12-18T03:53:27;2.55;;;1.73;;
50056;SDS011;36875;49.468;11.200;2022-12-18T03:56:00;2.30;;;1.70;;
50056;SDS011;36875;49.468;11.200;2022-12-18T03:58:28;1.88;;;1.38;;
50056;SDS011;36875;49.468;11.200;2022-12-18T04:00:58;2.40;;;1.63;;
50056;SDS011;36875;49.468;11.200;2022-12-18T04:05:54;2.70;;;1.80;;
50056;SDS011;36875;49.468;11.200;2022-12-18T04:08:21;2.72;;;1.65;;
50056;SDS011;36875;49.468;11.200;2022-12-18T04:10:48;2.80;;;1.60;;
50056;SDS011;36875;49.468;11.200;2022-12-18T04:13:21;1.52;;;1.40;;
50056;SDS011;36875;49.468;11.200;2022-12-18T04:15:47;2.65;;;1.75;;
50056;SDS011;36875;49.468;11.200;2022-12-18T04:18:14;2.13;;;1.60;;
50056;SDS011;36875;49.468;11.200;2022-12-18T04:20:39;2.72;;;1.70;;
50056;SDS011;36875;49.468;11.200;2022-12-18T04:23:05;2.38;;;1.60;;
50056;SDS011;36875;49.468;11.200;2022-12-18T04:25:30;1.92;;;1.23;;
50056;SDS011;36875;49.468;11.200;2022-12-18T04:27:56;2.58;;;1.50;;
50056;SDS011;36875;49.468;11.200;2022-12-18T04:30:21;2.20;;;1.58;;
50056;SDS011;36875;49.468;11.200;2022-12-18T04:32:48;1.75;;;1.50;;
50056;SDS011;36875;49.468;11.200;2022-12-18T04:35:15;2.33;;;1.50;;
50056;SDS011;36875;49.468;11.200;2022-12-18T04:37:40;2.00;;;1.50;;
50056;SDS011;36875;49.468;11.200;2022-12-18T04:40:06;2.25;;;1.50;;
50056;SDS011;36875;49.468;11.200;2022-12-18T04:42:32;2.50;;;1.80;;
50056;SDS011;36875;49.468;11.200;2022-12-18T04:44:57;2.30;;;1.60;;
50056;SDS011;36875;49.468;11.200;2022-12-18T04:47:23;2.28;;;1.50;;
50056;SDS011;36875;49.468;11.200;2022-12-18T04:49:48;2.47;;;1.60;;
50056;SDS011;36875;49.468;11.200;2022-12-18T04:52:15;2.30;;;1.50;;
50056;SDS011;36875;49.468;11.200;2022-12-18T04:54:41;2.30;;;1.50;;
50056;SDS011;36875;49.468;11.200;2022-12-18T04:57:06;2.35;;;1.40;;
50056;SDS011;36875;49.468;11.200;2022-12-18T04:59:32;2.45;;;1.77;;
50056;SDS011;36875;49.468;11.200;2022-12-18T05:01:57;2.33;;;1.50;;
50056;SDS011;36875;49.468;11.200;2022-12-18T05:04:23;2.35;;;1.58;;
50056;SDS011;36875;49.468;11.200;2022-12-18T05:06:48;2.13;;;1.40;;
50056;SDS011;36875;49.468;11.200;2022-12-18T05:09:15;2.05;;;1.50;;
50056;SDS011;36875;49.468;11.200;2022-12-18T05:11:40;2.08;;;1.60;;
50056;SDS011;36875;49.468;11.200;2022-12-18T05:14:06;2.00;;;1.33;;
50056;SDS011;36875;49.468;11.200;2022-12-18T05:16:31;2.25;;;1.67;;
50056;SDS011;36875;49.468;11.200;2022-12-18T05:18:57;2.35;;;1.35;;
50056;SDS011;36875;49.468;11.200;2022-12-18T05:21:22;2.33;;;1.50;;
50056;SDS011;36875;49.468;11.200;2022-12-18T05:23:48;1.83;;;1.38;;
50056;SDS011;36875;49.468;11.200;2022-12-18T05:26:16;2.25;;;1.48;;
50056;SDS011;36875;49.468;11.200;2022-12-18T05:28:42;1.95;;;1.27;;
50056;SDS011;36875;49.468;11.200;2022-12-18T05:31:09;2.17;;;1.38;;
50056;SDS011;36875;49.468;11.200;2022-12-18T05:33:35;1.83;;;1.25;;
50056;SDS011;36875;49.468;11.200;2022-12-18T05:36:01;2.72;;;1.55;;
50056;SDS011;36875;49.468;11.200;2022-12-18T05:38:28;1.92;;;1.38;;
50056;SDS011;36875;49.468;11.200;2022-12-18T05:40:55;2.45;;;1.63;;
50056;SDS011;36875;49.468;11.200;2022-12-18T05:43:23;2.42;;;1.63;;
50056;SDS011;36875;49.468;11.200;2022-12-18T05:45:49;2.03;;;1.50;;
50056;SDS011;36875;49.468;11.200;2022-12-18T05:48:16;2.08;;;1.40;;
50056;SDS011;36875;49.468;11.200;2022-12-18T05:50:42;1.90;;;1.50;;
50056;SDS011;36875;49.468;11.200;2022-12-18T05:53:10;2.28;;;1.40;;
50056;SDS011;36875;49.468;11.200;2022-12-18T05:55:37;2.22;;;1.63;;
50056;SDS011;36875;49.468;11.200;2022-12-18T05:58:04;2.10;;;1.45;;
50056;SDS011;36875;49.468;11.200;2022-12-18T06:00:33;2.15;;;1.50;;
50056;SDS011;36875;49.468;11.200;2022-12-18T06:03:00;2.47;;;1.50;;
50056;SDS011;36875;49.468;11.200;2022-12-18T06:05:26;3.60;;;1.60;;
50056;SDS011;36875;49.468;11.200;2022-12-18T06:07:51;2.08;;;1.50;;
50056;SDS011;36875;49.468;11.200;2022-12-18T06:10:17;1.98;;;1.30;;
50056;SDS011;36875;49.468;11.200;2022-12-18T06:12:43;3.28;;;1.50;;
50056;SDS011;36875;49.468;11.200;2022-12-18T06:15:11;2.28;;;1.50;;
50056;SDS011;36875;49.468;11.200;2022-12-18T06:17:38;1.88;;;1.50;;
50056;SDS011;36875;49.468;11.200;2022-12-18T06:20:04;2.40;;;1.40;;
50056;SDS011;36875;49.468;11.200;2022-12-18T06:22:31;2.78;;;1.50;;
50056;SDS011;36875;49.468;11.200;2022-12-18T06:24:57;2.13;;;1.42;;
50056;SDS011;36875;49.468;11.200;2022-12-18T06:27:24;1.70;;;1.20;;
50056;SDS011;36875;49.468;11.200;2022-12-18T06:29:50;1.73;;;1.30;;
50056;SDS011;36875;49.468;11.200;2022-12-18T06:32:15;1.98;;;1.40;;
50056;SDS011;36875;49.468;11.200;2022-12-18T06:34:42;1.75;;;1.40;;
50056;SDS011;36875;49.468;11.200;2022-12-18T06:37:07;2.20;;;1.55;;
50056;SDS011;36875;49.468;11.200;2022-12-18T06:39:33;2.20;;;1.50;;
50056;SDS011;36875;49.468;11.200;2022-12-18T06:41:58;3.40;;;1.88;;
50056;SDS011;36875;49.468;11.200;2022-12-18T06:44:24;2.13;;;1.23;;
50056;SDS011;36875;49.468;11.200;2022-12-18T06:46:49;2.33;;;1.50;;
50056;SDS011;36875;49.468;11.200;2022-12-18T06:49:15;1.67;;;1.30;;
50056;SDS011;36875;49.468;11.200;2022-12-18T06:51:42;3.28;;;1.85;;
50056;SDS011;36875;49.468;11.200;2022-12-18T06:54:07;2.88;;;1.92;;
50056;SDS011;36875;49.468;11.200;2022-12-18T06:56:33;4.32;;;2.40;;
50056;SDS011;36875;49.468;11.200;2022-12-18T06:58:59;4.50;;;2.40;;
50056;SDS011;36875;49.468;11.200;2022-12-18T07:01:25;4.57;;;2.83;;
50056;SDS011;36875;49.468;11.200;2022-12-18T07:03:51;5.18;;;2.70;;
50056;SDS011;36875;49.468;11.200;2022-12-18T07:06:19;5.65;;;2.97;;
50056;SDS011;36875;49.468;11.200;2022-12-18T07:08:47;3.72;;;2.42;;
50056;SDS011;36875;49.468;11.200;2022-12-18T07:11:13;5.65;;;2.67;;
50056;SDS011;36875;49.468;11.200;2022-12-18T07:13:39;6.25;;;2.80;;
50056;SDS011;36875;49.468;11.200;2022-12-18T07:16:06;4.60;;;2.63;;
50056;SDS011;36875;49.468;11.200;2022-12-18T07:18:33;4.85;;;2.97;;
50056;SDS011;36875;49.468;11.200;2022-12-18T07:21:01;5.40;;;2.90;;
50056;SDS011;36875;49.468;11.200;2022-12-18T07:23:28;4.90;;;3.10;;
50056;SDS011;36875;49.468;11.200;2022-12-18T07:25:55;6.40;;;3.03;;
50056;SDS011;36875;49.468;11.200;2022-12-18T07:28:20;4.60;;;2.80;;
50056;SDS011;36875;49.468;11.200;2022-12-18T07:30:46;5.43;;;3.40;;
50056;SDS011;36875;49.468;11.200;2022-12-18T07:33:11;6.95;;;3.55;;
50056;SDS011;36875;49.468;11.200;2022-12-18T07:35:37;10.02;;;4.22;;
50056;SDS011;36875;49.468;11.200;2022-12-18T07:38:02;11.32;;;3.40;;
50056;SDS011;36875;49.468;11.200;2022-12-18T07:40:28;10.23;;;4.18;;
50056;SDS011;36875;49.468;11.200;2022-12-18T07:42:55;8.00;;;3.47;;
50056;SDS011;36875;49.468;11.200;2022-12-18T07:45:20;13.55;;;4.00;;
50056;SDS011;36875;49.468;11.200;2022-12-18T07:47:46;11.85;;;3.75;;
50056;SDS011;36875;49.468;11.200;2022-12-18T07:50:11;17.50;;;5.55;;
50056;SDS011;36875;49.468;11.200;2022-12-18T07:52:38;9.25;;;3.10;;
50056;SDS011;36875;49.468;11.200;2022-12-18T07:55:03;9.00;;;3.35;;
50056;SDS011;36875;49.468;11.200;2022-12-18T07:57:30;9.15;;;3.05;;
50056;SDS011;36875;49.468;11.200;2022-12-18T07:59:56;11.02;;;3.10;;
50056;SDS011;36875;49.468;11.200;2022-12-18T08:02:22;10.50;;;2.90;;
50056;SDS011;36875;49.468;11.200;2022-12-18T08:04:47;10.32;;;2.78;;
50056;SDS011;36875;49.468;11.200;2022-12-18T08:07:13;13.30;;;3.55;;
50056;SDS011;36875;49.468;11.200;2022-12-18T08:09:38;13.60;;;2.90;;
50056;SDS011;36875;49.468;11.200;2022-12-18T08:12:04;10.50;;;4.10;;
50056;SDS011;36875;49.468;11.200;2022-12-18T08:14:30;7.55;;;2.50;;
50056;SDS011;36875;49.468;11.200;2022-12-18T08:16:57;12.30;;;2.83;;
50056;SDS011;36875;49.468;11.200;2022-12-18T08:19:22;7.63;;;3.33;;
50056;SDS011;36875;49.468;11.200;2022-12-18T08:21:48;8.30;;;3.28;;
50056;SDS011;36875;49.468;11.200;2022-12-18T08:24:14;6.35;;;3.10;;
50056;SDS011;36875;49.468;11.200;2022-12-18T08:26:39;7.68;;;3.15;;
50056;SDS011;36875;49.468;11.200;2022-12-18T08:29:05;8.20;;;3.63;;
50056;SDS011;36875;49.468;11.200;2022-12-18T08:31:30;7.80;;;3.58;;
50056;SDS011;36875;49.468;11.200;2022-12-18T08:33:57;6.60;;;3.47;;
50056;SDS011;36875;49.468;11.200;2022-12-18T08:36:23;5.68;;;3.05;;
50056;SDS011;36875;49.468;11.200;2022-12-18T08:38:49;6.90;;;3.28;;
50056;SDS011;36875;49.468;11.200;2022-12-18T08:41:15;7.68;;;3.08;;
50056;SDS011;36875;49.468;11.200;2022-12-18T08:43:42;8.32;;;3.45;;
50056;SDS011;36875;49.468;11.200;2022-12-18T08:46:27;7.68;;;3.50;;
50056;SDS011;36875;49.468;11.200;2022-12-18T08:48:59;10.30;;;3.17;;
50056;SDS011;36875;49.468;11.200;2022-12-18T08:51:24;9.30;;;3.60;;
50056;SDS011;36875;49.468;11.200;2022-12-18T08:53:50;6.00;;;3.08;;
50056;SDS011;36875;49.468;11.200;2022-12-18T08:56:16;7.18;;;3.33;;
50056;SDS011;36875;49.468;11.200;2022-12-18T08:58:42;8.18;;;3.10;;
50056;SDS011;36875;49.468;11.200;2022-12-18T09:01:08;6.95;;;3.05;;
50056;SDS011;36875;49.468;11.200;2022-12-18T09:03:35;5.75;;;3.10;;
50056;SDS011;36875;49.468;11.200;2022-12-18T09:06:02;7.40;;;3.28;;
50056;SDS011;36875;49.468;11.200;2022-12-18T09:08:28;9.70;;;3.25;;
50056;SDS011;36875;49.468;11.200;2022-12-18T09:10:54;7.13;;;3.55;;
50056;SDS011;36875;49.468;11.200;2022-12-18T09:13:20;8.75;;;3.30;;
50056;SDS011;36875;49.468;11.200;2022-12-18T09:15:46;6.63;;;3.35;;
50056;SDS011;36875;49.468;11.200;2022-12-18T09:18:14;5.32;;;3.40;;
50056;SDS011;36875;49.468;11.200;2022-12-18T09:20:41;8.15;;;3.47;;
50056;SDS011;36875;49.468;11.200;2022-12-18T09:23:09;8.43;;;3.13;;
50056;SDS011;36875;49.468;11.200;2022-12-18T09:25:34;10.80;;;3.25;;
50056;SDS011;36875;49.468;11.200;2022-12-18T09:28:01;11.25;;;4.07;;
50056;SDS011;36875;49.468;11.200;2022-12-18T09:30:26;12.90;;;3.72;;
50056;SDS011;36875;49.468;11.200;2022-12-18T09:32:52;8.18;;;3.50;;
50056;SDS011;36875;49.468;11.200;2022-12-18T09:35:17;12.55;;;3.88;;
50056;SDS011;36875;49.468;11.200;2022-12-18T09:37:43;12.30;;;4.07;;
50056;SDS011;36875;49.468;11.200;2022-12-18T09:40:13;13.80;;;3.78;;
50056;SDS011;36875;49.468;11.200;2022-12-18T09:42:39;10.57;;;3.60;;
50056;SDS011;36875;49.468;11.200;2022-12-18T09:45:07;8.45;;;3.33;;
50056;SDS011;36875;49.468;11.200;2022-12-18T09:47:39;10.45;;;3.22;;
50056;SDS011;36875;49.468;11.200;2022-12-18T09:50:22;5.75;;;3.03;;
50056;SDS011;36875;49.468;11.200;2022-12-18T09:52:55;9.23;;;2.90;;
50056;SDS011;36875;49.468;11.200;2022-12-18T09:55:24;5.97;;;2.83;;
50056;SDS011;36875;49.468;11.200;2022-12-18T09:57:55;5.85;;;2.60;;
50056;SDS011;36875;49.468;11.200;2022-12-18T10:00:25;5.67;;;2.73;;
50056;SDS011;36875;49.468;11.200;2022-12-18T10:02:50;10.95;;;3.28;;
50056;SDS011;36875;49.468;11.200;2022-12-18T10:05:20;6.70;;;2.70;;
50056;SDS011;36875;49.468;11.200;2022-12-18T10:07:55;9.18;;;3.10;;
50056;SDS011;36875;49.468;11.200;2022-12-18T10:10:31;6.00;;;2.55;;
50056;SDS011;36875;49.468;11.200;2022-12-18T10:13:02;5.57;;;2.72;;
50056;SDS011;36875;49.468;11.200;2022-12-18T10:15:35;6.78;;;2.75;;
50056;SDS011;36875;49.468;11.200;2022-12-18T10:18:07;5.95;;;2.78;;
50056;SDS011;36875;49.468;11.200;2022-12-18T10:20:46;3.80;;;2.20;;
50056;SDS011;36875;49.468;11.200;2022-12-18T10:23:15;4.22;;;2.15;;
50056;SDS011;36875;49.468;11.200;2022-12-18T10:25:51;5.85;;;2.78;;
50056;SDS011;36875;49.468;11.200;2022-12-18T10:28:20;7.75;;;2.80;;
50056;SDS011;36875;49.468;11.200;2022-12-18T10:30:48;5.07;;;2.30;;
50056;SDS011;36875;49.468;11.200;2022-12-18T10:33:14;4.68;;;2.28;;
50056;SDS011;36875;49.468;11.200;2022-12-18T10:35:42;3.80;;;2.22;;
50056;SDS011;36875;49.468;11.200;2022-12-18T10:38:20;4.97;;;2.13;;
50056;SDS011;36875;49.468;11.200;2022-12-18T10:40:50;5.20;;;2.10;;
50056;SDS011;36875;49.468;11.200;2022-12-18T10:43:21;4.07;;;2.03;;
50056;SDS011;36875;49.468;11.200;2022-12-18T10:45:58;4.15;;;2.20;;
50056;SDS011;36875;49.468;11.200;2022-12-18T10:48:31;6.68;;;2.10;;
50056;SDS011;36875;49.468;11.200;2022-12-18T10:50:58;6.03;;;2.17;;
50056;SDS011;36875;49.468;11.200;2022-12-18T10:53:25;4.80;;;2.13;;
50056;SDS011;36875;49.468;11.200;2022-12-18T10:55:54;3.40;;;1.95;;
50056;SDS011;36875;49.468;11.200;2022-12-18T10:58:24;4.82;;;2.20;;
50056;SDS011;36875;49.468;11.200;2022-12-18T11:01:01;3.72;;;1.50;;
50056;SDS011;36875;49.468;11.200;2022-12-18T11:03:30;3.15;;;1.83;;
50056;SDS011;36875;49.468;11.200;2022-12-18T11:06:01;4.03;;;1.73;;
50056;SDS011;36875;49.468;11.200;2022-12-18T11:08:28;2.78;;;1.52;;
50056;SDS011;36875;49.468;11.200;2022-12-18T11:10:54;3.13;;;1.80;;
50056;SDS011;36875;49.468;11.200;2022-12-18T11:13:21;3.72;;;1.70;;
50056;SDS011;36875;49.468;11.200;2022-12-18T11:15:49;2.50;;;1.65;;
50056;SDS011;36875;49.468;11.200;2022-12-18T11:18:16;3.65;;;1.80;;
50056;SDS011;36875;49.468;11.200;2022-12-18T11:20:46;2.90;;;1.77;;
50056;SDS011;36875;49.468;11.200;2022-12-18T11:23:16;3.25;;;1.70;;
50056;SDS011;36875;49.468;11.200;2022-12-18T11:25:50;4.93;;;1.92;;
50056;SDS011;36875;49.468;11.200;2022-12-18T11:28:26;2.88;;;1.40;;
50056;SDS011;36875;49.468;11.200;2022-12-18T11:31:09;2.03;;;1.40;;
50056;SDS011;36875;49.468;11.200;2022-12-18T11:33:42;2.65;;;1.50;;
50056;SDS011;36875;49.468;11.200;2022-12-18T11:36:12;2.92;;;1.70;;
50056;SDS011;36875;49.468;11.200;2022-12-18T11:38:39;3.05;;;1.83;;
50056;SDS011;36875;49.468;11.200;2022-12-18T11:41:11;3.60;;;1.70;;
50056;SDS011;36875;49.468;11.200;2022-12-18T11:43:48;2.67;;;1.60;;
50056;SDS011;36875;49.468;11.200;2022-12-18T11:46:19;2.47;;;1.55;;
50056;SDS011;36875;49.468;11.200;2022-12-18T11:48:52;2.50;;;1.60;;
50056;SDS011;36875;49.468;11.200;2022-12-18T11:51:25;3.33;;;1.60;;
50056;SDS011;36875;49.468;11.200;2022-12-18T11:53:55;2.65;;;1.70;;
50056;SDS011;36875;49.468;11.200;2022-12-18T11:56:26;3.13;;;2.10;;
50056;SDS011;36875;49.468;11.200;2022-12-18T11:59:00;2.75;;;1.80;;
50056;SDS011;36875;49.468;11.200;2022-12-18T12:01:36;2.70;;;1.60;;
50056;SDS011;36875;49.468;11.200;2022-12-18T12:04:15;2.85;;;1.55;;
50056;SDS011;36875;49.468;11.200;2022-12-18T12:07:06;3.35;;;1.70;;
50056;SDS011;36875;49.468;11.200;2022-12-18T12:09:44;3.13;;;1.77;;
50056;SDS011;36875;49.468;11.200;2022-12-18T12:12:22;2.95;;;1.80;;
50056;SDS011;36875;49.468;11.200;2022-12-18T12:15:13;1.90;;;1.42;;
50056;SDS011;36875;49.468;11.200;2022-12-18T12:17:48;3.00;;;1.83;;
50056;SDS011;36875;49.468;11.200;2022-12-18T12:20:17;3.63;;;1.60;;
50056;SDS011;36875;49.468;11.200;2022-12-18T12:22:49;2.70;;;1.45;;
50056;SDS011;36875;49.468;11.200;2022-12-18T12:25:27;2.33;;;1.50;;
50056;SDS011;36875;49.468;11.200;2022-12-18T12:28:01;2.90;;;1.80;;
50056;SDS011;36875;49.468;11.200;2022-12-18T12:30:42;3.88;;;1.73;;
50056;SDS011;36875;49.468;11.200;2022-12-18T12:33:20;2.20;;;1.50;;
50056;SDS011;36875;49.468;11.200;2022-12-18T12:35:58;2.20;;;1.40;;
50056;SDS011;36875;49.468;11.200;2022-12-18T12:38:31;2.30;;;1.42;;
50056;SDS011;36875;49.468;11.200;2022-12-18T12:40:59;3.00;;;1.67;;
50056;SDS011;36875;49.468;11.200;2022-12-18T12:43:31;1.80;;;1.35;;
50056;SDS011;36875;49.468;11.200;2022-12-18T12:46:05;1.88;;;1.40;;
50056;SDS011;36875;49.468;11.200;2022-12-18T12:48:37;2.10;;;1.42;;
50056;SDS011;36875;49.468;11.200;2022-12-18T12:51:10;2.13;;;1.40;;
50056;SDS011;36875;49.468;11.200;2022-12-18T12:53:38;2.67;;;1.60;;
50056;SDS011;36875;49.468;11.200;2022-12-18T12:56:06;1.83;;;1.40;;
50056;SDS011;36875;49.468;11.200;2022-12-18T12:58:36;1.42;;;1.30;;
50056;SDS011;36875;49.468;11.200;2022-12-18T13:01:14;2.70;;;1.40;;
50056;SDS011;36875;49.468;11.200;2022-12-18T13:03:51;2.30;;;1.45;;
50056;SDS011;36875;49.468;11.200;2022-12-18T13:06:23;1.67;;;1.20;;
50056;SDS011;36875;49.468;11.200;2022-12-18T13:08:59;1.85;;;1.30;;
50056;SDS011;36875;49.468;11.200;2022-12-18T13:11:35;1.77;;;1.38;;
50056;SDS011;36875;49.468;11.200;2022-12-18T13:14:26;2.72;;;1.55;;
50056;SDS011;36875;49.468;11.200;2022-12-18T13:20:03;2.63;;;1.38;;
50056;SDS011;36875;49.468;11.200;2022-12-18T13:22:34;2.40;;;1.38;;
50056;SDS011;36875;49.468;11.200;2022-12-18T13:25:01;2.47;;;1.40;;
50056;SDS011;36875;49.468;11.200;2022-12-18T13:36:15;2.08;;;1.35;;
50056;SDS011;36875;49.468;11.200;2022-12-18T13:41:52;2.53;;;1.50;;
50056;SDS011;36875;49.468;11.200;2022-12-18T13:44:58;1.38;;;1.10;;
50056;SDS011;36875;49.468;11.200;2022-12-18T13:47:25;1.90;;;1.20;;
50056;SDS011;36875;49.468;11.200;2022-12-18T13:49:54;9.38;;;5.20;;
50056;SDS011;36875;49.468;11.200;2022-12-18T13:52:20;13.80;;;8.23;;
50056;SDS011;36875;49.468;11.200;2022-12-18T13:54:49;12.43;;;6.65;;
50056;SDS011;36875;49.468;11.200;2022-12-18T13:57:26;12.35;;;6.18;;
50056;SDS011;36875;49.468;11.200;2022-12-18T13:59:53;11.23;;;6.18;;
50056;SDS011;36875;49.468;11.200;2022-12-18T14:02:21;11.18;;;6.03;;
50056;SDS011;36875;49.468;11.200;2022-12-18T14:04:47;11.93;;;5.65;;
50056;SDS011;36875;49.468;11.200;2022-12-18T14:07:16;10.45;;;5.38;;
50056;SDS011;36875;49.468;11.200;2022-12-18T14:09:44;11.98;;;4.88;;
50056;SDS011;36875;49.468;11.200;2022-12-18T14:12:14;9.07;;;5.07;;
50056;SDS011;36875;49.468;11.200;2022-12-18T14:15:00;7.80;;;4.63;;
50056;SDS011;36875;49.468;11.200;2022-12-18T14:17:26;7.55;;;4.22;;
50056;SDS011;36875;49.468;11.200;2022-12-18T14:19:52;6.93;;;4.38;;
50056;SDS011;36875;49.468;11.200;2022-12-18T14:22:20;6.38;;;3.80;;
50056;SDS011;36875;49.468;11.200;2022-12-18T14:25:04;7.15;;;4.30;;
50056;SDS011;36875;49.468;11.200;2022-12-18T14:27:41;7.07;;;4.10;;
50056;SDS011;36875;49.468;11.200;2022-12-18T14:30:18;6.18;;;3.78;;
50056;SDS011;36875;49.468;11.200;2022-12-18T14:32:58;6.85;;;3.85;;
50056;SDS011;36875;49.468;11.200;2022-12-18T14:35:25;9.55;;;4.20;;
50056;SDS011;36875;49.468;11.200;2022-12-18T14:37:52;8.82;;;4.20;;
50056;SDS011;36875;49.468;11.200;2022-12-18T14:40:17;6.78;;;4.00;;
50056;SDS011;36875;49.468;11.200;2022-12-18T14:42:43;5.88;;;3.63;;
50056;SDS011;36875;49.468;11.200;2022-12-18T14:45:32;6.53;;;3.67;;
50056;SDS011;36875;49.468;11.200;2022-12-18T14:47:58;6.80;;;3.30;;
50056;SDS011;36875;49.468;11.200;2022-12-18T14:50:24;7.43;;;3.10;;
50056;SDS011;36875;49.468;11.200;2022-12-18T14:52:51;9.18;;;3.65;;
50056;SDS011;36875;49.468;11.200;2022-12-18T14:55:17;5.97;;;3.60;;
50056;SDS011;36875;49.468;11.200;2022-12-18T14:57:46;6.18;;;3.35;;
50056;SDS011;36875;49.468;11.200;2022-12-18T15:00:16;7.53;;;3.80;;
50056;SDS011;36875;49.468;11.200;2022-12-18T15:02:44;5.95;;;3.47;;
50056;SDS011;36875;49.468;11.200;2022-12-18T15:05:16;6.03;;;3.33;;